Time;durP1;ratioP1;P1;durP2;ratioP2;P2;SDS_P1;SDS_P2;PMS_P1;PMS_P2;Temp;Humidity;BMP_temperature;BMP_pressure;BME280_temperature;BME280_humidity;BME280_pressure;Samples;Min_cycle;Max_cycle;Signal;HPM_P1;HPM_P2
2021/04/08 00:02:20;;;;;;;9.77;3.90;;;;;;;;;;5114105;28;20047;-56
2021/04/08 00:04:47;;;;;;;11.70;3.73;;;;;;;;;;5114104;28;20385;-56
2021/04/08 00:07:14;;;;;;;6.40;3.80;;;;;;;;;;5114143;28;20107;-56
2021/04/08 00:09:40;;;;;;;14.90;4.20;;;;;;;;;;5114092;28;20055;-56
2021/04/08 00:12:08;;;;;;;8.83;4.30;;;;;;;;;;5114282;28;20023;-56
2021/04/08 00:14:34;;;;;;;15.87;5.23;;;;;;;;;;5113979;28;20084;-56
2021/04/08 00:17:01;;;;;;;6.73;4.27;;;;;;;;;;5113907;28;20440;-56
2021/04/08 00:19:28;;;;;;;11.00;4.60;;;;;;;;;;5114221;28;20024;-56
2021/04/08 00:21:55;;;;;;;9.53;4.23;;;;;;;;;;5113832;28;20054;-56
2021/04/08 00:24:22;;;;;;;8.77;4.97;;;;;;;;;;5113674;28;20036;-56
2021/04/08 00:26:48;;;;;;;7.83;4.50;;;;;;;;;;5113758;28;20023;-56
2021/04/08 00:29:15;;;;;;;10.27;5.13;;;;;;;;;;5113395;28;20472;-56
2021/04/08 00:31:42;;;;;;;9.10;4.40;;;;;;;;;;5113697;28;20027;-56
2021/04/08 00:34:09;;;;;;;9.63;5.07;;;;;;;;;;5113707;28;20031;-56
2021/04/08 00:36:36;;;;;;;13.73;5.80;;;;;;;;;;5113740;28;20075;-56
2021/04/08 00:39:03;;;;;;;7.00;4.60;;;;;;;;;;5113648;28;20032;-56
2021/04/08 00:41:30;;;;;;;7.20;4.37;;;;;;;;;;5113466;28;20110;-56
2021/04/08 00:43:58;;;;;;;12.47;5.00;;;;;;;;;;5113428;28;20397;-56
2021/04/08 00:46:25;;;;;;;9.93;5.70;;;;;;;;;;5113498;28;20028;-55
2021/04/08 00:48:52;;;;;;;13.03;5.50;;;;;;;;;;5113528;28;20028;-55
2021/04/08 00:51:19;;;;;;;6.53;4.20;;;;;;;;;;5113461;28;20378;-56
2021/04/08 00:53:47;;;;;;;11.73;5.23;;;;;;;;;;5113357;28;20089;-55
2021/04/08 00:56:14;;;;;;;8.20;5.20;;;;;;;;;;5113410;28;20088;-56
2021/04/08 00:58:42;;;;;;;11.53;5.63;;;;;;;;;;5113470;28;20034;-55
2021/04/08 01:01:09;;;;;;;8.70;5.27;;;;;;;;;;5113430;28;20057;-55
2021/04/08 01:03:36;;;;;;;10.60;5.33;;;;;;;;;;5113135;28;20038;-56
2021/04/08 01:06:03;;;;;;;15.87;6.30;;;;;;;;;;5113253;28;20081;-55
2021/04/08 01:08:31;;;;;;;9.97;5.77;;;;;;;;;;5113296;28;20019;-55
2021/04/08 01:10:58;;;;;;;9.97;6.20;;;;;;;;;;5113269;28;20065;-56
2021/04/08 01:13:25;;;;;;;10.90;6.33;;;;;;;;;;5113103;28;20546;-55
2021/04/08 01:15:52;;;;;;;14.10;5.93;;;;;;;;;;5113181;28;20057;-55
2021/04/08 01:18:28;;;;;;;12.23;5.93;;;;;;;;;;5113261;28;20157;-55
2021/04/08 01:21:07;;;;;;;15.33;6.40;;;;;;;;;;5113178;28;20024;-55
2021/04/08 01:23:50;;;;;;;10.43;6.50;;;;;;;;;;5112964;28;20030;-55
2021/04/08 01:26:36;;;;;;;9.27;6.10;;;;;;;;;;5113118;28;20558;-55
2021/04/08 01:29:10;;;;;;;11.50;6.17;;;;;;;;;;5112754;28;20071;-56
2021/04/08 01:31:38;;;;;;;9.38;6.10;;;;;;;;;;5113030;28;20027;-55
2021/04/08 01:34:07;;;;;;;11.10;6.93;;;;;;;;;;5112970;28;20035;-54
2021/04/08 01:36:35;;;;;;;13.00;8.20;;;;;;;;;;5112930;28;20027;-54
2021/04/08 01:39:10;;;;;;;13.73;7.50;;;;;;;;;;5112933;28;20076;-54
2021/04/08 01:41:39;;;;;;;18.27;7.20;;;;;;;;;;5112871;28;20153;-54
2021/04/08 01:44:08;;;;;;;20.50;8.57;;;;;;;;;;5112871;28;20043;-55
2021/04/08 01:46:36;;;;;;;12.77;7.13;;;;;;;;;;5112983;28;20045;-56
2021/04/08 01:49:04;;;;;;;18.30;7.50;;;;;;;;;;5113286;28;20102;-56
2021/04/08 01:51:31;;;;;;;14.53;8.70;;;;;;;;;;5112843;28;20035;-55
2021/04/08 01:53:59;;;;;;;15.23;9.43;;;;;;;;;;5116549;28;20028;-56
2021/04/08 01:56:29;;;;;;;19.47;7.30;;;;;;;;;;5116877;28;20031;-55
2021/04/08 01:58:57;;;;;;;15.13;8.03;;;;;;;;;;5116698;28;20031;-56
2021/04/08 02:01:24;;;;;;;15.40;7.63;;;;;;;;;;5116610;28;20432;-55
2021/04/08 02:03:51;;;;;;;13.43;7.37;;;;;;;;;;5116430;28;20052;-55
2021/04/08 02:06:18;;;;;;;10.40;6.50;;;;;;;;;;5116600;28;20065;-55
2021/04/08 02:08:47;;;;;;;15.90;7.40;;;;;;;;;;5116495;28;20038;-55
2021/04/08 02:11:14;;;;;;;11.20;6.70;;;;;;;;;;5116390;28;20473;-54
2021/04/08 02:13:44;;;;;;;14.53;8.70;;;;;;;;;;5116359;28;20080;-55
2021/04/08 02:16:11;;;;;;;16.30;8.40;;;;;;;;;;5116371;28;20356;-55
2021/04/08 02:18:38;;;;;;;15.27;9.43;;;;;;;;;;5116299;28;20035;-55
2021/04/08 02:21:05;;;;;;;13.00;8.33;;;;;;;;;;5116255;28;20471;-54
2021/04/08 02:23:34;;;;;;;11.20;7.70;;;;;;;;;;5116150;28;20032;-55
2021/04/08 02:26:01;;;;;;;14.47;7.70;;;;;;;;;;5116242;28;20024;-54
2021/04/08 02:28:28;;;;;;;9.70;7.47;;;;;;;;;;5116134;28;20374;-54
2021/04/08 02:30:56;;;;;;;11.97;7.20;;;;;;;;;;5115305;28;20051;-54
2021/04/08 02:33:26;;;;;;;12.87;6.67;;;;;;;;;;5116015;28;20024;-55
2021/04/08 02:35:54;;;;;;;15.97;7.97;;;;;;;;;;5115847;28;20031;-54
2021/04/08 02:38:22;;;;;;;9.43;7.20;;;;;;;;;;5115885;28;20386;-54
2021/04/08 02:40:49;;;;;;;9.80;6.93;;;;;;;;;;5115873;28;20074;-54
2021/04/08 02:43:16;;;;;;;11.47;7.60;;;;;;;;;;5115682;28;20028;-54
2021/04/08 02:45:43;;;;;;;11.70;6.70;;;;;;;;;;5115768;28;20039;-54
2021/04/08 02:48:14;;;;;;;9.93;6.30;;;;;;;;;;5115737;28;20099;-54
2021/04/08 02:50:42;;;;;;;9.10;6.73;;;;;;;;;;5115823;28;20020;-54
2021/04/08 02:53:27;;;;;;;11.03;6.90;;;;;;;;;;5115696;28;20103;-54
2021/04/08 02:55:58;;;;;;;10.15;6.32;;;;;;;;;;5115616;28;20024;-55
2021/04/08 02:58:25;;;;;;;10.73;5.67;;;;;;;;;;5115506;28;20078;-55
2021/04/08 03:00:56;;;;;;;10.30;6.50;;;;;;;;;;5115538;28;20030;-54
2021/04/08 03:03:24;;;;;;;8.60;5.67;;;;;;;;;;5114922;28;20042;-54
2021/04/08 03:05:53;;;;;;;14.00;6.67;;;;;;;;;;5115405;28;20028;-55
2021/04/08 03:08:20;;;;;;;14.10;7.40;;;;;;;;;;5115573;28;20031;-55
2021/04/08 03:10:48;;;;;;;15.20;7.87;;;;;;;;;;5115253;28;20419;-55
2021/04/08 03:13:16;;;;;;;15.17;7.23;;;;;;;;;;5115215;28;20051;-55
2021/04/08 03:15:44;;;;;;;16.70;7.73;;;;;;;;;;5115185;28;20027;-55
2021/04/08 03:18:16;;;;;;;11.27;7.00;;;;;;;;;;5115232;28;20026;-55
2021/04/08 03:20:44;;;;;;;12.23;6.80;;;;;;;;;;5115065;28;20030;-54
2021/04/08 03:23:12;;;;;;;9.47;5.70;;;;;;;;;;5114926;28;20394;-54
2021/04/08 03:25:39;;;;;;;9.50;5.57;;;;;;;;;;5114906;28;20031;-54
2021/04/08 03:28:07;;;;;;;8.87;4.87;;;;;;;;;;5114947;28;20032;-54
2021/04/08 03:30:34;;;;;;;9.77;4.53;;;;;;;;;;5114586;27;20138;-54
2021/04/08 03:33:01;;;;;;;11.43;6.13;;;;;;;;;;5114869;28;20080;-54
2021/04/08 03:35:28;;;;;;;12.77;6.10;;;;;;;;;;5114780;28;20023;-54
2021/04/08 03:37:55;;;;;;;14.13;6.10;;;;;;;;;;5114866;28;20030;-54
2021/04/08 03:40:22;;;;;;;9.73;5.40;;;;;;;;;;5114722;28;20023;-54
2021/04/08 03:42:52;;;;;;;8.80;5.30;;;;;;;;;;5114548;28;20537;-54
2021/04/08 03:45:19;;;;;;;11.20;5.67;;;;;;;;;;5114537;28;20023;-54
2021/04/08 03:47:47;;;;;;;10.93;4.77;;;;;;;;;;5114521;28;20020;-54
2021/04/08 03:50:15;;;;;;;10.10;5.50;;;;;;;;;;5114465;28;20024;-54
2021/04/08 03:52:43;;;;;;;8.63;5.67;;;;;;;;;;5114429;28;20015;-54
2021/04/08 03:55:11;;;;;;;9.50;5.70;;;;;;;;;;5114318;28;20019;-54
2021/04/08 03:57:40;;;;;;;8.10;5.47;;;;;;;;;;5114317;28;20020;-54
2021/04/08 04:00:08;;;;;;;10.87;4.50;;;;;;;;;;5114258;28;20106;-54
2021/04/08 04:02:35;;;;;;;8.60;5.23;;;;;;;;;;5114247;28;20020;-54
2021/04/08 04:05:04;;;;;;;11.30;5.50;;;;;;;;;;5114381;28;20039;-54
2021/04/08 04:07:34;;;;;;;8.20;4.63;;;;;;;;;;5114169;28;20400;-54
2021/04/08 04:10:01;;;;;;;6.47;4.67;;;;;;;;;;5114094;28;20363;-54
2021/04/08 04:12:28;;;;;;;7.80;4.60;;;;;;;;;;5114070;28;20386;-54
2021/04/08 04:14:58;;;;;;;9.27;5.67;;;;;;;;;;5113364;28;20428;-54
2021/04/08 04:17:26;;;;;;;9.40;5.60;;;;;;;;;;5114009;28;20059;-54
2021/04/08 04:19:53;;;;;;;10.23;5.90;;;;;;;;;;5113967;28;20028;-54
2021/04/08 04:22:20;;;;;;;7.17;5.30;;;;;;;;;;5113865;28;20024;-54
2021/04/08 04:24:47;;;;;;;9.83;5.73;;;;;;;;;;5113840;28;20044;-54
2021/04/08 04:27:14;;;;;;;12.17;6.10;;;;;;;;;;5113780;28;20051;-54
2021/04/08 04:29:41;;;;;;;11.47;6.37;;;;;;;;;;5113464;28;20044;-55
2021/04/08 04:32:11;;;;;;;11.03;5.30;;;;;;;;;;5113716;28;20034;-54
2021/04/08 04:34:40;;;;;;;10.47;6.20;;;;;;;;;;5113729;28;20024;-54
2021/04/08 04:37:08;;;;;;;6.70;5.80;;;;;;;;;;5113822;28;20016;-54
2021/04/08 04:39:34;;;;;;;12.27;7.13;;;;;;;;;;5113679;28;20398;-54
2021/04/08 04:42:01;;;;;;;10.33;6.00;;;;;;;;;;5113562;28;20031;-54
2021/04/08 04:44:29;;;;;;;10.13;5.70;;;;;;;;;;5113444;28;20066;-53
2021/04/08 04:46:57;;;;;;;8.63;4.73;;;;;;;;;;5113440;28;20087;-54
2021/04/08 04:49:25;;;;;;;6.97;5.23;;;;;;;;;;5113545;28;20111;-54
2021/04/08 04:51:52;;;;;;;12.90;5.73;;;;;;;;;;5113648;28;20099;-54
2021/04/08 04:54:19;;;;;;;7.97;5.90;;;;;;;;;;5113392;28;20024;-54
2021/04/08 04:56:47;;;;;;;10.23;5.53;;;;;;;;;;5113448;28;20027;-54
2021/04/08 04:59:14;;;;;;;8.97;3.93;;;;;;;;;;5113409;28;20152;-54
2021/04/08 05:01:41;;;;;;;5.87;3.77;;;;;;;;;;5113226;28;20107;-53
2021/04/08 05:04:09;;;;;;;10.50;4.67;;;;;;;;;;5094875;28;20494;-54
2021/04/08 05:06:36;;;;;;;7.13;4.43;;;;;;;;;;5113548;28;20484;-54
2021/04/08 05:09:03;;;;;;;6.53;4.67;;;;;;;;;;5113237;28;20034;-54
2021/04/08 05:11:30;;;;;;;7.47;4.33;;;;;;;;;;5113212;28;20026;-54
2021/04/08 05:13:57;;;;;;;8.47;4.33;;;;;;;;;;5113231;28;20046;-54
2021/04/08 05:16:23;;;;;;;5.83;4.10;;;;;;;;;;5113112;28;20020;-54
2021/04/08 05:18:50;;;;;;;6.47;3.23;;;;;;;;;;5113322;28;20027;-54
2021/04/08 05:21:17;;;;;;;5.73;3.20;;;;;;;;;;5113129;28;20081;-54
2021/04/08 05:23:44;;;;;;;4.17;2.57;;;;;;;;;;5113084;28;20363;-54
2021/04/08 05:26:11;;;;;;;3.63;2.50;;;;;;;;;;5113952;28;20020;-54
2021/04/08 05:28:37;;;;;;;4.10;2.63;;;;;;;;;;5117214;28;20027;-54
2021/04/08 05:31:05;;;;;;;3.90;2.70;;;;;;;;;;5116930;27;20448;-54
2021/04/08 05:33:32;;;;;;;4.90;2.50;;;;;;;;;;5117078;28;20019;-54
2021/04/08 05:35:58;;;;;;;3.50;2.50;;;;;;;;;;5117139;28;20478;-54
2021/04/08 05:38:25;;;;;;;4.07;2.60;;;;;;;;;;5117109;28;20052;-54
2021/04/08 05:40:52;;;;;;;3.63;2.23;;;;;;;;;;5116930;28;20546;-54
2021/04/08 05:43:19;;;;;;;3.90;2.50;;;;;;;;;;5116850;28;20035;-54
2021/04/08 05:45:46;;;;;;;5.23;2.30;;;;;;;;;;5116948;28;20374;-54
2021/04/08 05:48:15;;;;;;;2.90;2.10;;;;;;;;;;5117196;28;20020;-54
2021/04/08 05:50:42;;;;;;;3.13;1.87;;;;;;;;;;5116840;28;20099;-54
2021/04/08 05:53:09;;;;;;;3.10;2.17;;;;;;;;;;5116785;28;20020;-54
2021/04/08 05:55:36;;;;;;;3.57;2.27;;;;;;;;;;5116746;28;20114;-54
2021/04/08 05:58:03;;;;;;;8.60;3.80;;;;;;;;;;5116734;28;20035;-54
2021/04/08 06:00:30;;;;;;;6.90;3.60;;;;;;;;;;5116647;28;20027;-54
2021/04/08 06:02:57;;;;;;;7.70;5.03;;;;;;;;;;5116669;28;20028;-54
2021/04/08 06:05:23;;;;;;;7.33;4.73;;;;;;;;;;5116563;28;20155;-54
2021/04/08 06:07:51;;;;;;;8.10;5.07;;;;;;;;;;5116515;28;20027;-54
2021/04/08 06:10:17;;;;;;;10.87;5.37;;;;;;;;;;5116495;28;20026;-54
2021/04/08 06:12:44;;;;;;;7.60;4.80;;;;;;;;;;5116326;28;20015;-54
2021/04/08 06:15:12;;;;;;;9.93;4.70;;;;;;;;;;5116341;28;20104;-54
2021/04/08 06:17:38;;;;;;;7.70;4.53;;;;;;;;;;5116398;28;20019;-54
2021/04/08 06:20:06;;;;;;;10.23;5.17;;;;;;;;;;5116410;28;20012;-54
2021/04/08 06:22:33;;;;;;;6.00;4.10;;;;;;;;;;5116603;28;20370;-54
2021/04/08 06:25:00;;;;;;;6.37;3.47;;;;;;;;;;5116134;28;20027;-54
2021/04/08 06:27:28;;;;;;;10.93;3.30;;;;;;;;;;5116090;28;20034;-53
2021/04/08 06:29:55;;;;;;;4.57;3.10;;;;;;;;;;5115880;27;20063;-54
2021/04/08 06:32:22;;;;;;;5.43;3.50;;;;;;;;;;5115983;28;20379;-54
2021/04/08 06:34:49;;;;;;;5.27;3.63;;;;;;;;;;5115955;28;20019;-54
2021/04/08 06:37:16;;;;;;;6.20;3.73;;;;;;;;;;5116000;28;20039;-54
2021/04/08 06:39:43;;;;;;;6.47;3.77;;;;;;;;;;5115340;28;20023;-54
2021/04/08 06:42:10;;;;;;;5.60;3.40;;;;;;;;;;5115984;28;20023;-54
2021/04/08 06:44:37;;;;;;;5.77;3.83;;;;;;;;;;5115719;28;20039;-53
2021/04/08 06:47:05;;;;;;;8.70;2.90;;;;;;;;;;5115833;28;20023;-54
2021/04/08 06:49:35;;;;;;;6.20;2.67;;;;;;;;;;5115846;28;20073;-53
2021/04/08 06:52:02;;;;;;;4.77;2.90;;;;;;;;;;5115664;28;20032;-54
2021/04/08 06:54:29;;;;;;;4.27;2.93;;;;;;;;;;5115580;28;20034;-54
2021/04/08 06:56:56;;;;;;;4.50;2.67;;;;;;;;;;5115630;28;20038;-54
2021/04/08 06:59:23;;;;;;;3.77;2.60;;;;;;;;;;5115548;28;20071;-54
2021/04/08 07:01:50;;;;;;;3.97;2.80;;;;;;;;;;5115448;28;20031;-54
2021/04/08 07:04:17;;;;;;;5.70;2.60;;;;;;;;;;5115560;28;20043;-53
2021/04/08 07:06:44;;;;;;;3.43;2.37;;;;;;;;;;5115490;28;20102;-54
2021/04/08 07:09:13;;;;;;;4.10;2.50;;;;;;;;;;5115352;28;20027;-55
2021/04/08 07:11:40;;;;;;;7.73;2.80;;;;;;;;;;5115342;28;20088;-54
2021/04/08 07:14:11;;;;;;;4.83;2.83;;;;;;;;;;5115470;28;20385;-54
2021/04/08 07:16:38;;;;;;;3.17;2.20;;;;;;;;;;5115551;28;20424;-54
2021/04/08 07:19:07;;;;;;;3.90;2.70;;;;;;;;;;5115493;28;20027;-54
2021/04/08 07:21:38;;;;;;;4.33;2.83;;;;;;;;;;5096325;28;20035;-54
2021/04/08 07:24:12;;;;;;;6.63;2.80;;;;;;;;;;5115224;28;20404;-54
2021/04/08 07:27:02;;;;;;;3.43;2.53;;;;;;;;;;5115044;28;20023;-54
2021/04/08 07:29:41;;;;;;;4.90;2.30;;;;;;;;;;5101798;27;20040;-54
2021/04/08 07:32:08;;;;;;;4.63;2.80;;;;;;;;;;5114979;28;20099;-54
2021/04/08 07:34:37;;;;;;;4.87;2.63;;;;;;;;;;5114793;28;20027;-54
2021/04/08 07:37:04;;;;;;;4.50;2.50;;;;;;;;;;5115122;28;20028;-54
2021/04/08 07:39:51;;;;;;;4.10;2.70;;;;;;;;;;5114690;28;20267;-54
2021/04/08 07:42:19;;;;;;;4.13;2.37;;;;;;;;;;5114698;28;20474;-54
2021/04/08 07:44:47;;;;;;;3.60;2.07;;;;;;;;;;5114511;28;20283;-54
2021/04/08 07:47:33;;;;;;;3.37;2.00;;;;;;;;;;5114977;28;20020;-54
2021/04/08 07:50:05;;;;;;;4.07;2.63;;;;;;;;;;5113612;28;20252;-54
2021/04/08 07:52:44;;;;;;;4.40;2.33;;;;;;;;;;5114465;28;20027;-54
2021/04/08 07:55:11;;;;;;;4.00;2.27;;;;;;;;;;5114453;28;20446;-54
2021/04/08 07:57:54;;;;;;;3.57;2.20;;;;;;;;;;5114351;28;20111;-54
2021/04/08 08:00:23;;;;;;;3.50;2.10;;;;;;;;;;5114592;28;20042;-54
2021/04/08 08:02:50;;;;;;;3.83;2.37;;;;;;;;;;5114467;28;20081;-53
2021/04/08 08:05:17;;;;;;;4.77;2.57;;;;;;;;;;5114217;28;20478;-54
2021/04/08 08:07:45;;;;;;;3.97;2.17;;;;;;;;;;5114229;28;20027;-54
2021/04/08 08:10:21;;;;;;;4.63;2.60;;;;;;;;;;5114099;28;20035;-54
2021/04/08 08:12:48;;;;;;;3.50;2.13;;;;;;;;;;5113987;28;20055;-54
2021/04/08 08:15:19;;;;;;;4.13;2.43;;;;;;;;;;5114089;28;20256;-54
2021/04/08 08:17:46;;;;;;;4.03;2.30;;;;;;;;;;5114055;28;20083;-54
2021/04/08 08:20:14;;;;;;;3.40;2.23;;;;;;;;;;5114070;28;20266;-54
2021/04/08 08:22:41;;;;;;;5.20;3.00;;;;;;;;;;5113963;28;20715;-54
2021/04/08 08:25:08;;;;;;;6.93;2.53;;;;;;;;;;5113927;28;20302;-54
2021/04/08 08:27:49;;;;;;;4.03;2.40;;;;;;;;;;5113790;28;20255;-54
2021/04/08 08:30:18;;;;;;;4.57;2.53;;;;;;;;;;5113012;27;20313;-54
2021/04/08 08:33:03;;;;;;;3.43;2.10;;;;;;;;;;5113635;28;20259;-53
2021/04/08 08:35:30;;;;;;;7.97;2.80;;;;;;;;;;5113825;28;20377;-53
2021/04/08 08:37:57;;;;;;;3.97;2.40;;;;;;;;;;5113739;28;20038;-54
2021/04/08 08:40:24;;;;;;;4.30;2.33;;;;;;;;;;5113704;28;20252;-54
2021/04/08 08:42:51;;;;;;;3.33;2.27;;;;;;;;;;5113642;28;20329;-54
2021/04/08 08:45:20;;;;;;;4.03;2.50;;;;;;;;;;5113527;28;20284;-53
2021/04/08 08:47:47;;;;;;;5.27;2.63;;;;;;;;;;5113581;28;20339;-54
2021/04/08 08:50:16;;;;;;;3.73;2.20;;;;;;;;;;5113518;28;20256;-54
2021/04/08 08:52:48;;;;;;;4.53;2.90;;;;;;;;;;5113437;28;20258;-54
2021/04/08 08:55:16;;;;;;;3.67;2.40;;;;;;;;;;5113556;28;20106;-54
2021/04/08 08:57:44;;;;;;;4.57;2.67;;;;;;;;;;5113400;28;20346;-53
2021/04/08 09:00:11;;;;;;;3.17;2.10;;;;;;;;;;5113403;28;20248;-54
2021/04/08 09:02:39;;;;;;;4.17;2.50;;;;;;;;;;5112997;28;20252;-53
2021/04/08 09:05:12;;;;;;;3.03;2.33;;;;;;;;;;5113909;28;20627;-54
2021/04/08 09:07:42;;;;;;;5.90;2.40;;;;;;;;;;5113254;28;20284;-54
2021/04/08 09:10:10;;;;;;;6.50;3.03;;;;;;;;;;5113245;28;20276;-54
2021/04/08 09:12:37;;;;;;;3.53;2.23;;;;;;;;;;5113247;28;20339;-54
2021/04/08 09:15:05;;;;;;;3.33;2.20;;;;;;;;;;5113305;28;20248;-54
2021/04/08 09:17:44;;;;;;;5.60;2.53;;;;;;;;;;5112293;28;20255;-54
2021/04/08 09:20:12;;;;;;;4.00;2.30;;;;;;;;;;5113111;28;20323;-54
2021/04/08 09:22:54;;;;;;;3.67;2.30;;;;;;;;;;5113034;28;20290;-54
2021/04/08 09:25:22;;;;;;;4.20;2.50;;;;;;;;;;5113075;28;20271;-54
2021/04/08 09:27:59;;;;;;;4.47;2.10;;;;;;;;;;5113054;28;20309;-54
2021/04/08 09:30:33;;;;;;;4.33;2.63;;;;;;;;;;5112730;28;20288;-54
2021/04/08 09:32:59;;;;;;;4.20;2.47;;;;;;;;;;5112946;28;20256;-53
2021/04/08 09:35:29;;;;;;;3.60;2.50;;;;;;;;;;5113100;28;20248;-54
2021/04/08 09:37:59;;;;;;;3.20;2.30;;;;;;;;;;5113250;28;20248;-54
2021/04/08 09:40:37;;;;;;;4.60;2.37;;;;;;;;;;5112920;28;20259;-54
2021/04/08 09:43:10;;;;;;;7.50;2.33;;;;;;;;;;5112968;28;20305;-53
2021/04/08 09:45:42;;;;;;;3.90;2.10;;;;;;;;;;5112908;28;20793;-54
2021/04/08 09:48:09;;;;;;;4.30;2.30;;;;;;;;;;5113005;28;20245;-54
2021/04/08 09:50:54;;;;;;;2.93;2.00;;;;;;;;;;5112880;28;20256;-54
2021/04/08 09:53:24;;;;;;;3.75;2.33;;;;;;;;;;5112969;28;20065;-54
2021/04/08 09:55:56;;;;;;;4.77;2.50;;;;;;;;;;5112794;28;20076;-53
2021/04/08 09:58:24;;;;;;;5.17;2.47;;;;;;;;;;5112845;28;20244;-54
2021/04/08 10:00:51;;;;;;;4.33;2.23;;;;;;;;;;5112803;28;20259;-54
2021/04/08 10:03:37;;;;;;;4.00;2.57;;;;;;;;;;5112528;28;20137;-54
2021/04/08 10:06:17;;;;;;;3.87;2.30;;;;;;;;;;5112722;28;20054;-54
2021/04/08 10:08:44;;;;;;;4.97;2.60;;;;;;;;;;5112823;28;20028;-54
2021/04/08 10:11:15;;;;;;;8.53;2.67;;;;;;;;;;5112722;28;20028;-54
2021/04/08 10:13:42;;;;;;;4.63;2.70;;;;;;;;;;5114170;28;20244;-54
2021/04/08 10:16:10;;;;;;;3.90;2.03;;;;;;;;;;5116455;28;20263;-54
2021/04/08 10:18:37;;;;;;;4.43;2.57;;;;;;;;;;5116487;28;20516;-54
2021/04/08 10:21:05;;;;;;;4.00;2.57;;;;;;;;;;5116381;28;20347;-54
2021/04/08 10:23:36;;;;;;;5.47;2.53;;;;;;;;;;5116208;28;20282;-54
2021/04/08 10:26:05;;;;;;;3.13;1.87;;;;;;;;;;5116238;28;20823;-54
2021/04/08 10:28:43;;;;;;;3.63;2.10;;;;;;;;;;5116106;28;20248;-54
2021/04/08 10:31:17;;;;;;;6.40;2.30;;;;;;;;;;5115765;27;20646;-53
2021/04/08 10:33:44;;;;;;;4.63;2.07;;;;;;;;;;5115987;28;20255;-54
2021/04/08 10:36:11;;;;;;;3.00;2.00;;;;;;;;;;5116063;28;20272;-54
2021/04/08 10:38:38;;;;;;;5.40;2.33;;;;;;;;;;5115914;28;20738;-54
2021/04/08 10:41:04;;;;;;;4.90;2.50;;;;;;;;;;5115905;28;20252;-54
2021/04/08 10:43:31;;;;;;;5.10;2.77;;;;;;;;;;5115739;28;20280;-54
2021/04/08 10:45:58;;;;;;;3.70;2.20;;;;;;;;;;5115803;28;20276;-54
2021/04/08 10:48:27;;;;;;;5.87;2.50;;;;;;;;;;5115833;28;20244;-54
2021/04/08 10:50:54;;;;;;;4.10;2.80;;;;;;;;;;5115717;28;20251;-54
2021/04/08 10:53:24;;;;;;;6.67;3.30;;;;;;;;;;5115637;28;20244;-54
2021/04/08 10:55:51;;;;;;;6.03;3.30;;;;;;;;;;5115599;28;20240;-54
2021/04/08 10:58:28;;;;;;;7.30;2.90;;;;;;;;;;5115614;28;20614;-53
2021/04/08 11:00:59;;;;;;;4.90;3.23;;;;;;;;;;5115532;28;20327;-53
2021/04/08 11:03:26;;;;;;;4.13;2.73;;;;;;;;;;5115287;28;20268;-54
2021/04/08 11:05:53;;;;;;;6.83;3.40;;;;;;;;;;5115387;28;20623;-53
2021/04/08 11:08:20;;;;;;;3.73;2.70;;;;;;;;;;5115342;28;20279;-54
2021/04/08 11:10:47;;;;;;;7.90;3.13;;;;;;;;;;5115576;28;20735;-53
2021/04/08 11:13:14;;;;;;;5.73;3.70;;;;;;;;;;5115261;28;20826;-54
2021/04/08 11:15:45;;;;;;;4.97;3.60;;;;;;;;;;5115319;28;20260;-54
2021/04/08 11:18:21;;;;;;;6.53;3.87;;;;;;;;;;5115272;28;20280;-54
2021/04/08 11:20:52;;;;;;;5.33;3.07;;;;;;;;;;5115226;28;20351;-54
2021/04/08 11:23:23;;;;;;;6.00;3.83;;;;;;;;;;5114943;28;20794;-54
2021/04/08 11:26:06;;;;;;;7.87;3.93;;;;;;;;;;5114859;28;20615;-54
2021/04/08 11:28:41;;;;;;;5.37;3.40;;;;;;;;;;5114854;28;20580;-54
2021/04/08 11:31:18;;;;;;;5.85;3.83;;;;;;;;;;5114606;27;20291;-53
2021/04/08 11:33:45;;;;;;;4.70;3.60;;;;;;;;;;5115079;28;20024;-53
2021/04/08 11:36:21;;;;;;;10.17;5.83;;;;;;;;;;5114835;28;20259;-53
2021/04/08 11:38:49;;;;;;;8.53;5.40;;;;;;;;;;5114826;28;20244;-54
2021/04/08 11:41:16;;;;;;;6.73;4.07;;;;;;;;;;5114712;28;20256;-54
2021/04/08 11:43:52;;;;;;;8.00;5.07;;;;;;;;;;5114663;28;20307;-54
2021/04/08 11:46:30;;;;;;;6.07;3.83;;;;;;;;;;5114600;28;20608;-53
2021/04/08 11:48:57;;;;;;;4.80;3.40;;;;;;;;;;5114611;28;20631;-53
2021/04/08 11:51:27;;;;;;;5.77;3.57;;;;;;;;;;5114584;28;20256;-53
2021/04/08 11:53:55;;;;;;;5.87;2.90;;;;;;;;;;5114433;28;20240;-54
2021/04/08 11:56:29;;;;;;;4.63;3.53;;;;;;;;;;5114398;28;20248;-53
2021/04/08 11:59:13;;;;;;;6.15;3.60;;;;;;;;;;5114558;28;20301;-53
2021/04/08 12:01:41;;;;;;;6.40;3.70;;;;;;;;;;5114564;28;20085;-53
2021/04/08 12:04:12;;;;;;;4.20;3.00;;;;;;;;;;5114485;28;20685;-54
2021/04/08 12:06:46;;;;;;;5.83;3.40;;;;;;;;;;5114360;28;20252;-53
2021/04/08 12:09:14;;;;;;;6.33;3.23;;;;;;;;;;5114196;28;20327;-54
2021/04/08 12:11:54;;;;;;;5.97;3.47;;;;;;;;;;5114160;28;20793;-53
2021/04/08 12:14:21;;;;;;;5.67;4.10;;;;;;;;;;5114023;28;20584;-54
2021/04/08 12:17:01;;;;;;;6.23;3.83;;;;;;;;;;5114103;28;20297;-53
2021/04/08 12:19:28;;;;;;;7.97;3.50;;;;;;;;;;5114000;28;20248;-54
2021/04/08 12:22:02;;;;;;;5.43;3.60;;;;;;;;;;5114030;28;20255;-54
2021/04/08 12:24:29;;;;;;;8.57;3.80;;;;;;;;;;5113786;28;20288;-54
2021/04/08 12:26:56;;;;;;;7.23;3.37;;;;;;;;;;5113931;28;20030;-54
2021/04/08 12:29:24;;;;;;;6.90;4.43;;;;;;;;;;5113791;28;20702;-53
2021/04/08 12:31:53;;;;;;;7.13;4.20;;;;;;;;;;5113424;27;20276;-53
2021/04/08 12:34:21;;;;;;;4.83;3.53;;;;;;;;;;5113799;28;20248;-53
2021/04/08 12:36:48;;;;;;;8.07;3.90;;;;;;;;;;5113099;28;20331;-54
2021/04/08 12:39:14;;;;;;;9.00;4.10;;;;;;;;;;5113648;28;20256;-53
2021/04/08 12:41:41;;;;;;;7.20;4.47;;;;;;;;;;5113648;28;20334;-53
2021/04/08 12:44:08;;;;;;;7.47;4.47;;;;;;;;;;5113471;28;20284;-53
2021/04/08 12:46:35;;;;;;;9.63;4.93;;;;;;;;;;5113602;28;20747;-53
2021/04/08 12:49:02;;;;;;;7.73;4.30;;;;;;;;;;5113570;28;20244;-54
2021/04/08 12:51:28;;;;;;;7.40;4.53;;;;;;;;;;5113516;28;20267;-53
2021/04/08 12:53:56;;;;;;;9.03;4.20;;;;;;;;;;5113522;28;20756;-53
2021/04/08 12:56:24;;;;;;;6.87;3.97;;;;;;;;;;5113531;28;20324;-53
2021/04/08 12:58:52;;;;;;;7.23;3.80;;;;;;;;;;5113387;28;20606;-53
2021/04/08 13:01:19;;;;;;;8.80;4.77;;;;;;;;;;5113329;28;20299;-53
2021/04/08 13:03:45;;;;;;;7.07;5.10;;;;;;;;;;5113248;28;20355;-53
2021/04/08 13:06:12;;;;;;;8.37;5.07;;;;;;;;;;5113269;28;20259;-53
2021/04/08 13:08:39;;;;;;;8.57;4.33;;;;;;;;;;5113347;28;20318;-54
2021/04/08 13:11:06;;;;;;;6.27;4.20;;;;;;;;;;5113237;28;20263;-53
2021/04/08 13:13:33;;;;;;;8.90;4.60;;;;;;;;;;5113155;28;20255;-54
2021/04/08 13:15:59;;;;;;;6.30;3.87;;;;;;;;;;5113191;28;20731;-54
2021/04/08 13:18:26;;;;;;;7.90;4.47;;;;;;;;;;5113199;28;20258;-54
2021/04/08 13:20:53;;;;;;;7.57;5.70;;;;;;;;;;5113252;28;20256;-53
2021/04/08 13:23:20;;;;;;;7.63;5.13;;;;;;;;;;5113123;28;20244;-54
2021/04/08 13:25:47;;;;;;;7.60;5.00;;;;;;;;;;5113281;28;20664;-54
2021/04/08 13:28:13;;;;;;;10.63;6.30;;;;;;;;;;5113363;28;20272;-54
2021/04/08 13:30:41;;;;;;;11.87;6.43;;;;;;;;;;5112711;28;20288;-54
2021/04/08 13:33:08;;;;;;;9.20;5.53;;;;;;;;;;5113088;28;20024;-53
2021/04/08 13:35:35;;;;;;;10.47;7.73;;;;;;;;;;5113020;28;20031;-54
2021/04/08 13:38:03;;;;;;;10.73;7.80;;;;;;;;;;5113252;28;20028;-54
2021/04/08 13:40:31;;;;;;;9.17;7.07;;;;;;;;;;5113057;28;20032;-54
2021/04/08 13:42:58;;;;;;;8.17;6.90;;;;;;;;;;5112941;28;20035;-54
2021/04/08 13:45:25;;;;;;;10.93;7.23;;;;;;;;;;5112931;28;20035;-54
2021/04/08 13:47:51;;;;;;;9.67;7.03;;;;;;;;;;5113220;28;20028;-54
2021/04/08 13:50:18;;;;;;;12.10;6.60;;;;;;;;;;5116912;28;20038;-54
2021/04/08 13:52:45;;;;;;;13.87;7.20;;;;;;;;;;5116959;28;20020;-54
2021/04/08 13:55:14;;;;;;;14.17;7.50;;;;;;;;;;5116968;28;20026;-54
2021/04/08 13:57:42;;;;;;;9.30;6.00;;;;;;;;;;5116821;28;20034;-54
2021/04/08 14:00:20;;;;;;;8.03;5.77;;;;;;;;;;5116698;28;20026;-54
2021/04/08 14:02:47;;;;;;;9.23;5.40;;;;;;;;;;5116589;28;20036;-54
2021/04/08 14:05:15;;;;;;;13.27;6.00;;;;;;;;;;5116591;28;20044;-54
2021/04/08 14:07:42;;;;;;;9.53;6.40;;;;;;;;;;5116582;28;20367;-54
2021/04/08 14:10:10;;;;;;;5.53;4.30;;;;;;;;;;5116598;28;20382;-54
2021/04/08 14:12:37;;;;;;;7.03;4.73;;;;;;;;;;5116389;28;20453;-54
2021/04/08 14:15:05;;;;;;;6.87;4.73;;;;;;;;;;5116513;28;20024;-54
2021/04/08 14:17:31;;;;;;;5.90;3.60;;;;;;;;;;5116373;28;20382;-54
2021/04/08 14:19:58;;;;;;;6.43;4.20;;;;;;;;;;5116426;28;20031;-54
2021/04/08 14:22:25;;;;;;;7.73;4.20;;;;;;;;;;5116277;28;20024;-54
2021/04/08 14:24:52;;;;;;;6.37;4.10;;;;;;;;;;5116177;28;20031;-54
2021/04/08 14:27:19;;;;;;;5.43;3.27;;;;;;;;;;5116280;28;20442;-54
2021/04/08 14:29:45;;;;;;;6.73;3.40;;;;;;;;;;5116221;28;20030;-54
2021/04/08 14:32:12;;;;;;;8.80;3.77;;;;;;;;;;5115713;27;20574;-54
2021/04/08 14:34:39;;;;;;;6.53;4.63;;;;;;;;;;5116059;28;20091;-54
2021/04/08 14:37:06;;;;;;;5.47;3.33;;;;;;;;;;5116166;28;20504;-54
2021/04/08 14:39:33;;;;;;;5.50;3.90;;;;;;;;;;5115903;28;20042;-54
2021/04/08 14:42:00;;;;;;;7.10;4.30;;;;;;;;;;5115922;28;20035;-54
2021/04/08 14:44:27;;;;;;;6.93;3.83;;;;;;;;;;5115774;28;20043;-54
2021/04/08 14:46:54;;;;;;;5.87;3.87;;;;;;;;;;5115805;28;20031;-54
2021/04/08 14:49:21;;;;;;;8.00;4.30;;;;;;;;;;5115821;28;20027;-55
2021/04/08 14:51:47;;;;;;;8.00;3.90;;;;;;;;;;5115686;28;20038;-55